Time;durP1;ratioP1;P1;durP2;ratioP2;P2;SDS_P1;SDS_P2;PMS_P1;PMS_P2;Temp;Humidity;BMP_temperature;BMP_pressure;BME280_temperature;BME280_humidity;BME280_pressure;Samples;Min_cycle;Max_cycle;Signal;HPM_P1;HPM_P2
2022/05/27 00:00:00;;;;;;;8.60;2.50;;;15.50;99.90;;;;;;4890225;29;20047;-57
2022/05/27 00:02:26;;;;;;;5.57;2.00;;;15.50;99.90;;;;;;4890785;29;20486;-57
2022/05/27 00:04:51;;;;;;;7.32;2.80;;;15.40;99.90;;;;;;4890005;29;20594;-58
2022/05/27 00:07:17;;;;;;;7.47;2.35;;;15.40;99.90;;;;;;4890498;29;20028;-58
2022/05/27 00:09:42;;;;;;;6.20;2.08;;;15.40;99.90;;;;;;4893651;29;20104;-57
2022/05/27 00:12:08;;;;;;;5.22;1.90;;;15.40;99.90;;;;;;4893381;29;20029;-58
2022/05/27 00:14:34;;;;;;;4.82;2.03;;;15.30;99.90;;;;;;4892349;29;20032;-57
2022/05/27 00:16:59;;;;;;;6.68;2.22;;;15.30;99.90;;;;;;4893769;29;20032;-57
2022/05/27 00:19:25;;;;;;;6.35;1.80;;;15.30;99.90;;;;;;4892204;29;20033;-57
2022/05/27 00:21:50;;;;;;;67.05;47.10;;;15.30;99.90;;;;;;4891082;29;20037;-57
2022/05/27 00:24:16;;;;;;;408.15;373.65;;;15.30;99.90;;;;;;4891105;29;20032;-57
2022/05/27 00:26:42;;;;;;;6.80;2.22;;;15.30;99.90;;;;;;4891827;29;20094;-57
2022/05/27 00:29:07;;;;;;;5.88;2.20;;;15.30;99.90;;;;;;4890773;29;20043;-57
2022/05/27 00:31:33;;;;;;;8.43;2.63;;;15.20;99.90;;;;;;4890871;29;20083;-58
2022/05/27 00:33:58;;;;;;;213.20;181.50;;;15.20;99.90;;;;;;4888960;29;20036;-58
2022/05/27 00:36:24;;;;;;;114.55;105.40;;;15.10;99.90;;;;;;4890483;29;20052;-57
2022/05/27 00:38:50;;;;;;;727.90;650.70;;;15.20;99.90;;;;;;4890393;29;20028;-57
2022/05/27 00:41:16;;;;;;;100.40;89.35;;;15.10;99.90;;;;;;4890204;29;20358;-58
2022/05/27 00:43:43;;;;;;;370.45;343.45;;;15.20;99.90;;;;;;4890447;29;20047;-57
2022/05/27 00:46:22;;;;;;;7.57;2.78;;;15.10;99.90;;;;;;4890099;29;20084;-57
2022/05/27 00:48:52;;;;;;;7.57;2.45;;;14.90;99.90;;;;;;4888523;29;20396;-57
2022/05/27 00:51:23;;;;;;;7.15;2.25;;;;;;;;;;4892563;29;20100;-57
2022/05/27 00:54:04;;;;;;;10.05;3.22;;;14.60;99.90;;;;;;4892184;29;20033;-57
2022/05/27 00:56:32;;;;;;;7.82;3.20;;;14.50;99.90;;;;;;4866229;29;20433;-57
2022/05/27 00:59:02;;;;;;;8.25;5.35;;;14.50;99.90;;;;;;4890638;29;20138;-57
2022/05/27 01:01:28;;;;;;;439.05;396.70;;;14.50;99.90;;;;;;4887263;29;20032;-57
2022/05/27 01:03:58;;;;;;;8.05;2.92;;;;;;;;;;4888750;29;20056;-57
2022/05/27 01:06:24;;;;;;;10.15;3.63;;;14.20;99.90;;;;;;4889790;29;20042;-58
2022/05/27 01:08:50;;;;;;;8.65;3.25;;;14.10;99.90;;;;;;4890129;29;20033;-58
2022/05/27 01:11:36;;;;;;;8.35;3.50;;;14.00;99.90;;;;;;4889774;29;20033;-57
2022/05/27 01:14:32;;;;;;;63.72;57.97;;;13.80;99.90;;;;;;4888664;29;20040;-58
2022/05/27 01:17:20;;;;;;;24.92;20.27;;;13.80;99.90;;;;;;4890535;29;20025;-57
2022/05/27 01:20:18;;;;;;;148.60;137.07;;;13.70;99.90;;;;;;4888932;29;20374;-58
2022/05/27 01:22:53;;;;;;;13.57;9.35;;;13.70;99.90;;;;;;4889732;29;20032;-58
2022/05/27 01:25:50;;;;;;;9.18;5.40;;;13.70;99.90;;;;;;4887165;29;20037;-57
2022/05/27 01:28:51;;;;;;;23.98;13.73;;;13.70;99.90;;;;;;4839016;29;20049;-58
2022/05/27 01:31:16;;;;;;;;;;;13.70;99.90;;;;;;4892167;29;20485;-58
2022/05/27 01:34:03;;;;;;;11.13;4.22;;;13.70;99.90;;;;;;4891464;29;19918;-58
2022/05/27 01:36:45;;;;;;;6.97;2.80;;;13.70;99.90;;;;;;4888053;29;20521;-58
2022/05/27 01:39:37;;;;;;;10.20;3.22;;;13.70;99.90;;;;;;4887477;29;20068;-58
2022/05/27 01:42:14;;;;;;;8.68;4.70;;;13.70;99.90;;;;;;4885749;29;20040;-57
2022/05/27 01:44:53;;;;;;;10.13;3.42;;;13.70;99.90;;;;;;4887733;29;20488;-58
2022/05/27 01:48:04;;;;;;;10.00;3.88;;;13.70;99.90;;;;;;4889589;29;20032;-58
2022/05/27 01:50:45;;;;;;;15.68;9.07;;;13.60;99.90;;;;;;4884058;29;20520;-58
2022/05/27 01:53:19;;;;;;;11.15;4.68;;;13.60;99.90;;;;;;4889414;29;20393;-58
2022/05/27 01:56:14;;;;;;;7.50;3.15;;;13.50;99.90;;;;;;4890021;29;20035;-57
2022/05/27 01:58:49;;;;;;;12.38;4.85;;;13.50;99.90;;;;;;4869172;29;20068;-58
2022/05/27 02:01:19;;;;;;;21.40;10.75;;;13.50;99.90;;;;;;4889780;29;20523;-58
2022/05/27 02:03:55;;;;;;;12.00;5.05;;;13.40;99.90;;;;;;4887689;29;20056;-57
2022/05/27 02:06:24;;;;;;;12.75;4.40;;;13.40;99.90;;;;;;4892321;29;20087;-58
2022/05/27 02:09:21;;;;;;;13.32;5.70;;;13.40;99.90;;;;;;4892913;29;20071;-57
2022/05/27 02:11:51;;;;;;;17.00;10.63;;;13.40;99.90;;;;;;4892170;29;20082;-57
2022/05/27 02:14:46;;;;;;;10.98;5.60;;;13.30;99.90;;;;;;4895078;29;20585;-57
2022/05/27 02:17:19;;;;;;;14.23;4.65;;;13.40;99.90;;;;;;4894162;29;20036;-57
2022/05/27 02:19:50;;;;;;;10.38;4.10;;;13.40;99.90;;;;;;4893157;29;20064;-58
2022/05/27 02:22:21;;;;;;;11.38;5.03;;;13.40;99.90;;;;;;4893700;29;20440;-57
2022/05/27 02:25:12;;;;;;;20.08;14.95;;;13.40;99.90;;;;;;4892865;29;20389;-58
2022/05/27 02:27:54;;;;;;;13.57;6.95;;;13.40;99.90;;;;;;4891431;29;20072;-58
2022/05/27 02:30:23;;;;;;;52.72;47.58;;;13.40;99.90;;;;;;4889657;29;20452;-58
2022/05/27 02:35:07;;;;;;;11.85;4.90;;;13.40;99.90;;;;;;4891342;29;20119;-58
2022/05/27 02:35:44;;;;;;;14.02;5.22;;;13.30;99.90;;;;;;4890928;29;20047;-57
2022/05/27 02:38:10;;;;;;;19.15;7.05;;;13.30;99.90;;;;;;4891398;29;20044;-57
2022/05/27 02:40:58;;;;;;;20.02;13.38;;;13.30;99.90;;;;;;4893334;29;20064;-58
2022/05/27 02:44:07;;;;;;;188.73;175.50;;;13.40;99.90;;;;;;4892210;29;20433;-57
2022/05/27 02:46:48;;;;;;;95.15;87.63;;;13.40;99.90;;;;;;4892056;29;20067;-57
2022/05/27 02:49:42;;;;;;;140.60;129.63;;;13.40;99.90;;;;;;4889196;29;20036;-57
2022/05/27 02:52:30;;;;;;;621.90;558.33;;;13.30;99.90;;;;;;4891785;29;20612;-57
2022/05/27 02:55:14;;;;;;;823.75;602.75;;;13.30;99.90;;;;;;4893001;29;20679;-57
2022/05/27 02:57:48;;;;;;;582.80;532.05;;;13.30;99.90;;;;;;4892756;29;20095;-57
2022/05/27 03:00:24;;;;;;;161.18;149.10;;;13.30;99.90;;;;;;4891324;29;20420;-57
2022/05/27 03:02:50;;;;;;;159.93;145.52;;;13.20;99.90;;;;;;4892076;29;20036;-57
2022/05/27 03:05:19;;;;;;;13.68;6.22;;;13.20;99.90;;;;;;4891550;29;20044;-57
2022/05/27 03:08:07;;;;;;;15.10;6.38;;;;;;;;;;4889373;29;20512;-57
2022/05/27 03:10:52;;;;;;;9.75;4.45;;;13.20;99.90;;;;;;4891506;29;20028;-57
2022/05/27 03:13:52;;;;;;;20.05;6.30;;;13.20;99.90;;;;;;4891738;29;20032;-57
2022/05/27 03:16:35;;;;;;;18.60;5.32;;;13.20;99.90;;;;;;4889031;29;20036;-58
2022/05/27 03:19:36;;;;;;;123.20;111.15;;;13.10;99.90;;;;;;4891633;29;20572;-57
2022/05/27 03:22:11;;;;;;;18.55;6.07;;;13.10;99.90;;;;;;4872200;29;20037;-58
2022/05/27 03:25:29;;;;;;;10.52;4.65;;;13.10;99.90;;;;;;4890098;29;20040;-58
2022/05/27 03:28:00;;;;;;;12.88;6.00;;;13.00;99.90;;;;;;4885936;29;20429;-58
2022/05/27 03:31:00;;;;;;;13.32;6.10;;;12.90;99.90;;;;;;4891450;29;20083;-58
2022/05/27 03:33:35;;;;;;;19.17;6.15;;;13.00;99.90;;;;;;4889653;29;20039;-57
2022/05/27 03:36:18;;;;;;;14.18;6.55;;;13.00;99.90;;;;;;4894533;29;20092;-57
2022/05/27 03:39:01;;;;;;;18.48;6.55;;;12.90;99.90;;;;;;4889881;29;20143;-57
2022/05/27 03:41:48;;;;;;;13.38;4.68;;;12.90;99.90;;;;;;4890116;29;20020;-57
2022/05/27 03:44:17;;;;;;;11.70;3.95;;;13.00;99.90;;;;;;4892849;29;20485;-58
2022/05/27 03:46:44;;;;;;;16.05;6.05;;;13.00;99.90;;;;;;4891317;29;20168;-58
2022/05/27 03:49:10;;;;;;;11.23;5.15;;;12.90;99.90;;;;;;4891352;29;20021;-57
2022/05/27 03:51:57;;;;;;;16.27;5.88;;;12.90;99.90;;;;;;4890671;29;20079;-58
2022/05/27 03:54:23;;;;;;;14.75;5.97;;;12.90;99.90;;;;;;4887999;29;20028;-58
2022/05/27 03:56:49;;;;;;;13.18;5.68;;;12.80;99.90;;;;;;4890564;29;20457;-58
2022/05/27 03:59:17;;;;;;;13.38;5.28;;;12.80;99.90;;;;;;4890051;29;20033;-57
2022/05/27 04:01:46;;;;;;;13.73;5.38;;;12.80;99.90;;;;;;4890728;29;20065;-58
2022/05/27 04:04:14;;;;;;;11.23;4.63;;;12.70;99.90;;;;;;4885759;29;20222;-57
2022/05/27 04:06:40;;;;;;;10.57;4.90;;;12.60;99.90;;;;;;4889268;29;20351;-58
2022/05/27 04:09:06;;;;;;;12.25;5.15;;;12.60;99.90;;;;;;4890670;29;20040;-57
2022/05/27 04:11:32;;;;;;;7.78;3.33;;;12.50;99.90;;;;;;4890377;29;20052;-57
2022/05/27 04:13:58;;;;;;;9.68;3.22;;;12.40;99.90;;;;;;4894109;29;20057;-58
2022/05/27 04:16:24;;;;;;;10.23;4.55;;;12.40;99.90;;;;;;4893409;29;20060;-57
2022/05/27 04:18:50;;;;;;;9.40;3.78;;;12.30;99.90;;;;;;4893468;29;20040;-58
2022/05/27 04:21:16;;;;;;;9.80;3.85;;;12.40;99.90;;;;;;4887133;29;20405;-57
2022/05/27 04:23:43;;;;;;;9.18;4.30;;;12.30;99.90;;;;;;4892504;29;20425;-57
2022/05/27 04:26:08;;;;;;;6.60;2.45;;;12.30;99.90;;;;;;4890975;29;20040;-58
2022/05/27 04:28:34;;;;;;;10.32;3.88;;;12.30;99.90;;;;;;4890564;29;20029;-57
2022/05/27 04:31:02;;;;;;;8.82;3.70;;;12.20;99.90;;;;;;4890831;29;20028;-57
2022/05/27 04:33:28;;;;;;;8.77;3.65;;;12.30;99.90;;;;;;4888005;29;20684;-58
2022/05/27 04:35:54;;;;;;;9.85;4.55;;;12.30;99.90;;;;;;4873791;29;20041;-57
2022/05/27 04:38:21;;;;;;;16.35;4.43;;;12.30;99.90;;;;;;4890408;29;20048;-57
2022/05/27 04:40:47;;;;;;;8.48;3.70;;;12.30;99.90;;;;;;4890465;29;20029;-58
2022/05/27 04:43:13;;;;;;;9.82;3.75;;;12.30;99.90;;;;;;4890568;29;20531;-57
2022/05/27 04:45:40;;;;;;;8.23;3.58;;;12.20;99.90;;;;;;4889905;29;20036;-57
2022/05/27 04:48:06;;;;;;;10.40;4.38;;;12.40;99.90;;;;;;4890735;29;20735;-57
2022/05/27 04:50:31;;;;;;;11.25;4.55;;;12.30;99.90;;;;;;4890075;29;20032;-57
2022/05/27 04:52:57;;;;;;;477.50;432.35;;;12.30;99.90;;;;;;4891307;29;20032;-58
2022/05/27 04:55:23;;;;;;;408.92;374.35;;;12.30;99.90;;;;;;4892369;29;20051;-57
2022/05/27 04:57:51;;;;;;;39.70;36.40;;;12.30;99.90;;;;;;4892714;29;20120;-58
2022/05/27 05:00:21;;;;;;;636.80;583.47;;;12.30;99.90;;;;;;4890421;29;20068;-58
2022/05/27 05:02:47;;;;;;;331.92;311.85;;;12.20;99.90;;;;;;4890038;29;20116;-57
2022/05/27 05:05:15;;;;;;;410.60;386.75;;;12.30;99.90;;;;;;4890950;29;20116;-57
2022/05/27 05:07:43;;;;;;;372.85;349.83;;;12.20;99.90;;;;;;4889539;29;20040;-58
2022/05/27 05:10:11;;;;;;;617.58;566.25;;;12.30;99.90;;;;;;4886615;29;20043;-58
2022/05/27 05:12:37;;;;;;;640.72;577.85;;;12.30;99.90;;;;;;4889545;29;20029;-58
2022/05/27 05:15:02;;;;;;;543.20;498.90;;;12.30;99.90;;;;;;4890351;29;20106;-58
2022/05/27 05:17:28;;;;;;;31.10;28.17;;;12.40;99.90;;;;;;4890592;29;20028;-58
2022/05/27 05:19:55;;;;;;;593.83;552.30;;;12.60;99.90;;;;;;4890020;29;20045;-58
2022/05/27 05:22:21;;;;;;;442.70;403.48;;;12.60;99.90;;;;;;4889466;29;20035;-58
2022/05/27 05:24:47;;;;;;;697.72;574.08;;;12.60;99.90;;;;;;4889914;29;20108;-57
2022/05/27 05:27:12;;;;;;;127.22;117.70;;;12.60;99.90;;;;;;4890453;29;20115;-57
2022/05/27 05:29:38;;;;;;;522.08;487.05;;;12.60;99.90;;;;;;4889514;29;20025;-58
2022/05/27 05:32:04;;;;;;;637.03;585.60;;;12.60;99.90;;;;;;4890055;29;20029;-57
2022/05/27 05:34:30;;;;;;;630.72;576.95;;;12.70;99.90;;;;;;4889153;29;20505;-58
2022/05/27 05:36:56;;;;;;;685.50;587.20;;;12.70;99.90;;;;;;4893061;29;20115;-57
2022/05/27 05:39:23;;;;;;;839.80;580.22;;;12.80;99.90;;;;;;4890216;29;20040;-58
2022/05/27 05:41:58;;;;;;;10.43;4.25;;;12.80;99.90;;;;;;4893630;29;20296;-57
2022/05/27 05:44:23;;;;;;;8.00;3.75;;;12.80;99.90;;;;;;4889870;29;20053;-57
2022/05/27 05:46:49;;;;;;;7.95;3.55;;;12.90;99.90;;;;;;4893825;29;20033;-58
2022/05/27 05:49:15;;;;;;;8.23;3.75;;;13.00;99.90;;;;;;4893541;29;20139;-57
2022/05/27 05:51:40;;;;;;;8.95;3.05;;;13.00;99.90;;;;;;4876236;29;20657;-58
2022/05/27 05:54:06;;;;;;;8.25;3.55;;;13.10;99.90;;;;;;4893557;29;20073;-58
2022/05/27 05:56:33;;;;;;;11.13;3.85;;;13.20;99.90;;;;;;4892932;29;20426;-58
2022/05/27 05:58:59;;;;;;;11.15;4.18;;;13.30;99.90;;;;;;4893606;29;20021;-58
2022/05/27 06:01:25;;;;;;;9.52;3.92;;;13.40;99.90;;;;;;4892474;29;20033;-57
2022/05/27 06:03:51;;;;;;;10.57;4.15;;;13.30;99.90;;;;;;4891304;29;20137;-57
2022/05/27 06:06:17;;;;;;;276.90;250.18;;;13.30;99.90;;;;;;4893338;29;20460;-57
2022/05/27 06:08:43;;;;;;;804.22;574.90;;;13.30;99.90;;;;;;4893013;29;20039;-57
2022/05/27 06:11:09;;;;;;;661.95;604.00;;;13.30;99.90;;;;;;4892357;29;20126;-57
2022/05/27 06:13:40;;;;;;;1219.78;649.22;;;13.30;99.90;;;;;;4891236;29;20024;-58
2022/05/27 06:16:07;;;;;;;1294.72;639.55;;;13.40;99.90;;;;;;4894837;29;20032;-58
2022/05/27 06:18:32;;;;;;;1130.57;620.47;;;13.50;99.90;;;;;;4895877;29;20378;-57
2022/05/27 06:20:59;;;;;;;685.75;495.88;;;13.60;99.90;;;;;;4891628;29;20032;-57
2022/05/27 06:23:28;;;;;;;53.22;44.63;;;13.60;99.90;;;;;;4891338;29;20032;-57
2022/05/27 06:25:59;;;;;;;10.40;4.15;;;13.70;99.90;;;;;;4893609;29;20032;-57
2022/05/27 06:36:39;;;;;;;1323.38;645.13;;;13.90;99.90;;;;;;4888673;29;20073;-57
2022/05/27 06:39:06;;;;;;;1360.20;633.08;;;14.00;99.90;;;;;;4891656;29;20044;-58
2022/05/27 06:41:32;;;;;;;845.35;645.28;;;14.00;99.90;;;;;;4890652;29;20071;-57
2022/05/27 06:43:57;;;;;;;734.42;672.95;;;13.90;99.90;;;;;;4891729;29;20028;-58
2022/05/27 06:46:23;;;;;;;1028.07;631.60;;;14.00;99.90;;;;;;4891174;29;20585;-56
2022/05/27 06:48:49;;;;;;;683.28;626.63;;;13.90;99.90;;;;;;4891055;29;20434;-57
2022/05/27 06:51:15;;;;;;;707.70;647.15;;;13.90;99.90;;;;;;4890438;29;20060;-57
2022/05/27 06:53:40;;;;;;;697.15;648.30;;;13.90;99.90;;;;;;4890407;29;20131;-57
2022/05/27 06:56:08;;;;;;;709.25;655.88;;;14.10;99.90;;;;;;4893208;29;20032;-58
2022/05/27 06:58:34;;;;;;;714.47;663.15;;;14.20;99.90;;;;;;4893686;29;20104;-57
2022/05/27 07:01:00;;;;;;;733.85;668.20;;;14.30;99.90;;;;;;4892794;29;20132;-58
2022/05/27 07:03:26;;;;;;;982.92;647.70;;;14.50;99.90;;;;;;4888799;29;20064;-57
2022/05/27 07:05:52;;;;;;;828.70;643.67;;;14.70;99.90;;;;;;4893034;29;20039;-57
2022/05/27 07:08:18;;;;;;;555.67;523.13;;;14.90;99.90;;;;;;4890848;29;20032;-57
2022/05/27 07:10:43;;;;;;;680.50;634.65;;;14.60;99.90;;;;;;4890727;29;20089;-57
2022/05/27 07:13:09;;;;;;;587.72;546.55;;;14.50;99.90;;;;;;4890941;29;20115;-57
2022/05/27 07:15:36;;;;;;;541.95;509.60;;;14.50;99.90;;;;;;4890876;29;20059;-57
2022/05/27 07:18:04;;;;;;;894.47;636.45;;;14.70;99.90;;;;;;4892839;29;20041;-58
2022/05/27 07:20:30;;;;;;;35.55;29.40;;;14.80;99.90;;;;;;4890692;29;20032;-57
2022/05/27 07:22:56;;;;;;;312.02;288.52;;;14.90;99.90;;;;;;4891900;29;20084;-57
2022/05/27 07:25:22;;;;;;;14.32;6.55;;;15.10;99.90;;;;;;4891354;29;20148;-58
2022/05/27 07:27:47;;;;;;;10.98;4.85;;;15.40;99.90;;;;;;4891315;29;20362;-57
2022/05/27 07:30:16;;;;;;;11.20;4.88;;;15.40;99.90;;;;;;4891511;29;20114;-57
2022/05/27 07:32:43;;;;;;;17.77;8.02;;;15.20;99.90;;;;;;4890799;29;20422;-57
2022/05/27 07:35:10;;;;;;;16.38;8.50;;;15.20;99.90;;;;;;4889649;29;20433;-58
2022/05/27 07:37:36;;;;;;;54.15;48.90;;;15.30;99.90;;;;;;4893428;29;20659;-57
2022/05/27 07:40:02;;;;;;;986.25;641.47;;;15.60;99.90;;;;;;4894233;29;20029;-58
2022/05/27 07:42:28;;;;;;;901.78;644.22;;;16.00;99.90;;;;;;4891221;29;20429;-58
2022/05/27 07:44:54;;;;;;;1031.53;647.40;;;15.90;99.90;;;;;;4891157;29;20065;-57
2022/05/27 07:47:20;;;;;;;848.80;604.55;;;15.60;99.90;;;;;;4892417;29;20350;-57
2022/05/27 07:49:45;;;;;;;16.25;6.20;;;15.70;99.90;;;;;;4890397;29;20033;-57
2022/05/27 07:52:12;;;;;;;21.65;8.35;;;15.50;99.90;;;;;;4890859;29;20063;-57
2022/05/27 07:54:37;;;;;;;17.13;5.80;;;15.50;99.90;;;;;;4890378;29;20052;-57
2022/05/27 07:57:23;;;;;;;20.60;8.07;;;15.50;99.90;;;;;;4890647;29;20035;-57
2022/05/27 07:59:55;;;;;;;18.63;6.32;;;15.50;99.90;;;;;;4890136;29;20465;-57
2022/05/27 08:02:24;;;;;;;18.33;9.90;;;15.50;99.90;;;;;;4890239;29;20434;-58
2022/05/27 08:04:50;;;;;;;686.13;611.40;;;15.50;99.90;;;;;;4884934;29;20568;-57
2022/05/27 08:07:15;;;;;;;15.63;6.80;;;15.70;99.90;;;;;;4890398;29;20040;-57
2022/05/27 08:09:41;;;;;;;719.47;656.55;;;15.70;99.90;;;;;;4889969;29;20048;-57
2022/05/27 08:12:07;;;;;;;718.65;658.38;;;16.10;99.90;;;;;;4890341;29;20029;-58
2022/05/27 08:14:33;;;;;;;767.17;643.35;;;16.40;99.90;;;;;;4889603;29;20113;-58
2022/05/27 08:17:00;;;;;;;758.65;677.47;;;16.40;99.90;;;;;;4892517;29;20098;-58
2022/05/27 08:19:26;;;;;;;750.15;688.55;;;16.90;99.90;;;;;;4893162;29;20132;-58
2022/05/27 08:21:51;;;;;;;127.95;116.82;;;17.50;99.90;;;;;;4891333;29;20032;-58
2022/05/27 08:24:17;;;;;;;215.23;197.48;;;17.10;99.90;;;;;;4889872;29;20437;-58
2022/05/27 08:26:43;;;;;;;339.33;314.65;;;16.60;99.90;;;;;;4890532;29;20039;-58
2022/05/27 08:29:10;;;;;;;593.28;554.67;;;16.60;99.90;;;;;;4890831;29;20040;-58
2022/05/27 08:31:37;;;;;;;771.63;714.15;;;17.30;99.90;;;;;;4889444;29;20790;-58
2022/05/27 08:39:34;;;;;;;812.13;704.30;;;18.30;99.90;;;;;;4889527;29;20122;-57
2022/05/27 08:42:18;;;;;;;971.33;700.50;;;17.40;99.90;;;;;;4890227;29;20495;-58
2022/05/27 08:45:21;;;;;;;1254.55;702.25;;;17.50;99.90;;;;;;4887414;29;20028;-57
2022/05/27 08:48:07;;;;;;;1282.40;719.47;;;18.10;99.90;;;;;;4887787;29;20112;-57
2022/05/27 08:50:43;;;;;;;1232.75;703.97;;;17.40;99.90;;;;;;4887410;29;20033;-58
2022/05/27 08:53:26;;;;;;;933.67;705.30;;;17.40;99.90;;;;;;4887060;29;20025;-58
2022/05/27 09:01:38;;;;;;;1134.78;714.38;;;18.70;99.90;;;;;;4890780;29;19945;-57
2022/05/27 09:04:16;;;;;;;1035.32;699.40;;;18.10;99.90;;;;;;4887602;29;20115;-57
2022/05/27 09:06:55;;;;;;;412.25;375.92;;;17.90;99.90;;;;;;4889593;29;20540;-57
2022/05/27 09:09:28;;;;;;;657.30;615.23;;;18.10;99.90;;;;;;4888896;29;20052;-57
2022/05/27 09:12:08;;;;;;;821.00;713.92;;;18.20;99.90;;;;;;4889158;29;20753;-57
2022/05/27 09:14:36;;;;;;;1016.17;708.10;;;17.40;99.90;;;;;;4885011;29;20025;-58
2022/05/27 09:17:06;;;;;;;924.42;695.00;;;16.70;99.90;;;;;;4889960;29;20536;-57
2022/05/27 09:19:58;;;;;;;1069.88;703.88;;;16.80;99.90;;;;;;4888552;29;20028;-57
2022/05/27 09:23:02;;;;;;;1013.78;677.60;;;16.70;99.90;;;;;;4887820;29;20071;-58
2022/05/27 09:26:04;;;;;;;1211.85;683.08;;;16.20;99.90;;;;;;4884967;29;20043;-57
2022/05/27 09:29:08;;;;;;;1263.88;701.40;;;16.10;99.90;;;;;;4887378;29;20032;-57
2022/05/27 09:31:43;;;;;;;1299.40;695.20;;;16.10;99.90;;;;;;4884876;29;20397;-58
2022/05/27 09:34:11;;;;;;;1263.65;676.60;;;16.20;99.90;;;;;;4884995;29;20043;-57
2022/05/27 09:36:41;;;;;;;1164.75;695.28;;;16.60;99.90;;;;;;4889139;29;20080;-57
2022/05/27 09:39:11;;;;;;;1299.75;697.33;;;17.00;99.90;;;;;;4891529;29;20081;-57
2022/05/27 09:42:05;;;;;;;1290.63;704.08;;;16.90;99.90;;;;;;4887608;29;20036;-58
2022/05/27 09:44:38;;;;;;;1211.85;699.70;;;16.80;99.90;;;;;;4886454;29;20315;-58
2022/05/27 09:47:04;;;;;;;823.83;725.95;;;17.70;99.90;;;;;;4889365;29;20407;-57
2022/05/27 09:49:31;;;;;;;828.85;744.08;;;18.60;99.90;;;;;;4890524;29;20029;-57
2022/05/27 09:51:57;;;;;;;836.72;749.67;;;18.80;99.90;;;;;;4889089;29;20025;-57
2022/05/27 09:54:36;;;;;;;1227.40;739.90;;;19.00;99.90;;;;;;4889168;29;20025;-57
2022/05/27 09:57:13;;;;;;;1257.25;723.40;;;19.00;99.90;;;;;;4889200;29;20127;-58
2022/05/27 09:59:43;;;;;;;1342.45;742.65;;;18.60;99.90;;;;;;4885341;29;20119;-57
2022/05/27 10:02:21;;;;;;;1363.78;734.33;;;18.40;99.90;;;;;;4889049;29;20056;-58
2022/05/27 10:04:52;;;;;;;1261.50;716.15;;;18.60;99.90;;;;;;4886645;29;20220;-57
2022/05/27 10:07:52;;;;;;;1303.13;726.22;;;19.00;99.90;;;;;;4886047;29;20036;-57
2022/05/27 10:10:39;;;;;;;1331.38;733.08;;;19.70;99.90;;;;;;4847748;29;20056;-58
2022/05/27 10:13:19;;;;;;;1337.47;738.00;;;19.20;99.90;;;;;;4889157;29;20152;-57
2022/05/27 10:15:45;;;;;;;1185.40;751.13;;;19.60;99.90;;;;;;4888545;29;20040;-58
2022/05/27 10:18:15;;;;;;;1313.60;745.25;;;20.00;99.90;;;;;;4890924;29;20036;-57
2022/05/27 10:20:43;;;;;;;1332.32;759.65;;;20.60;98.90;;;;;;4891237;29;20063;-57
2022/05/27 10:23:11;;;;;;;1387.50;749.47;;;19.70;98.80;;;;;;4890936;29;20503;-58
2022/05/27 10:25:42;;;;;;;1347.28;746.13;;;18.30;99.90;;;;;;4888533;29;20044;-57
2022/05/27 10:28:10;;;;;;;1391.18;743.60;;;18.40;99.90;;;;;;4889385;29;20051;-58
2022/05/27 10:30:56;;;;;;;1313.35;747.58;;;19.20;99.10;;;;;;4875510;29;20032;-57
2022/05/27 10:33:35;;;;;;;1382.28;760.97;;;20.20;96.40;;;;;;4887272;29;20107;-57
2022/05/27 10:36:01;;;;;;;1276.13;731.60;;;19.70;96.20;;;;;;4891993;29;20037;-57
2022/05/27 10:38:40;;;;;;;1311.78;742.95;;;19.30;97.30;;;;;;4892010;29;20330;-57
2022/05/27 10:41:31;;;;;;;1354.57;747.08;;;19.90;95.30;;;;;;4889669;29;20032;-57
2022/05/27 10:44:12;;;;;;;1354.68;747.65;;;20.10;95.10;;;;;;4889083;29;20041;-58
2022/05/27 10:46:58;;;;;;;1142.63;764.85;;;20.40;95.00;;;;;;4889857;29;20041;-59
2022/05/27 10:49:43;;;;;;;857.97;771.78;;;20.10;94.20;;;;;;4891322;29;20033;-59
2022/05/27 10:52:29;;;;;;;862.70;800.08;;;20.30;96.20;;;;;;4890330;29;20441;-59
2022/05/27 10:54:54;;;;;;;864.80;802.20;;;21.10;92.90;;;;;;4888674;29;20031;-59
2022/05/27 11:03:51;;;;;;;901.47;806.63;;;19.10;95.80;;;;;;4868726;29;20063;-59
2022/05/27 11:06:41;;;;;;;1192.70;759.30;;;20.00;93.00;;;;;;4890929;29;20133;-59
2022/05/27 11:09:09;;;;;;;;;;;18.90;94.30;;;;;;4890049;29;20114;-59
2022/05/27 11:11:41;;;;;;;1396.55;750.75;;;19.60;92.90;;;;;;4891519;29;19923;-59
2022/05/27 11:17:28;;;;;;;506.25;472.65;;;19.70;92.80;;;;;;4893498;29;20096;-57
2022/05/27 11:20:24;;;;;;;817.55;765.45;;;19.70;91.70;;;;;;4887438;29;20036;-57
2022/05/27 11:23:35;;;;;;;823.92;770.03;;;20.20;91.30;;;;;;4889758;29;20056;-57
2022/05/27 11:26:01;;;;;;;824.03;770.20;;;20.30;90.90;;;;;;4881680;29;20096;-58
2022/05/27 11:28:54;;;;;;;476.35;442.85;;;20.90;91.50;;;;;;4890555;29;20140;-57
2022/05/27 11:31:30;;;;;;;488.90;454.13;;;;;;;;;;4889731;29;20036;-58
2022/05/27 11:34:19;;;;;;;383.35;352.58;;;20.80;88.90;;;;;;4888526;29;20092;-58
2022/05/27 11:37:10;;;;;;;319.17;292.90;;;19.70;90.80;;;;;;4888688;29;20469;-57
2022/05/27 11:40:05;;;;;;;284.38;260.80;;;18.90;92.40;;;;;;4874156;29;20033;-58
2022/05/27 11:43:04;;;;;;;226.75;207.10;;;18.20;93.90;;;;;;4879678;29;20036;-58
2022/05/27 11:45:32;;;;;;;871.67;814.30;;;19.00;93.70;;;;;;4850546;29;20629;-57
2022/05/27 11:48:02;;;;;;;810.35;758.72;;;21.10;91.30;;;;;;4889699;29;20033;-57
2022/05/27 11:50:42;;;;;;;892.17;833.33;;;22.00;87.40;;;;;;4892184;29;20511;-57
2022/05/27 11:53:44;;;;;;;1264.55;789.85;;;22.00;86.00;;;;;;4888916;29;20059;-57
2022/05/27 11:56:40;;;;;;;870.50;803.30;;;21.00;82.30;;;;;;4889605;29;20111;-58
2022/05/27 11:59:20;;;;;;;1450.88;758.22;;;19.30;88.50;;;;;;4889817;29;20492;-57
2022/05/27 12:01:57;;;;;;;498.20;455.75;;;19.40;89.00;;;;;;4887545;29;20044;-57
2022/05/27 12:04:28;;;;;;;580.50;540.33;;;20.30;88.20;;;;;;4888653;29;20052;-58
2022/05/27 12:07:10;;;;;;;288.30;264.45;;;19.90;88.30;;;;;;4887063;29;20425;-57
2022/05/27 12:09:44;;;;;;;323.52;298.27;;;20.10;87.40;;;;;;4889939;29;20051;-57
2022/05/27 12:12:31;;;;;;;372.27;343.50;;;20.70;86.50;;;;;;4887613;29;20051;-57
2022/05/27 12:15:04;;;;;;;380.45;350.42;;;21.40;85.40;;;;;;4886825;29;20131;-57
2022/05/27 12:17:40;;;;;;;395.42;364.88;;;21.80;81.00;;;;;;4891395;29;20052;-57
2022/05/27 12:20:06;;;;;;;739.95;693.88;;;21.00;82.20;;;;;;4891102;29;20528;-57
2022/05/27 12:22:33;;;;;;;1578.00;794.45;;;22.60;80.60;;;;;;4892694;29;20107;-57
2022/05/27 12:25:02;;;;;;;1533.65;803.47;;;22.70;79.00;;;;;;4891999;29;20111;-57
2022/05/27 12:27:27;;;;;;;1286.25;999.90;;;22.20;77.00;;;;;;4872913;29;20055;-57
2022/05/27 12:29:54;;;;;;;1639.22;773.83;;;20.70;76.70;;;;;;4889861;29;20112;-57
2022/05/27 12:32:25;;;;;;;1585.82;741.80;;;21.30;78.10;;;;;;4891274;29;20025;-57
2022/05/27 12:34:52;;;;;;;1596.75;746.38;;;21.90;76.70;;;;;;4884680;29;20199;-57
2022/05/27 12:37:28;;;;;;;1027.85;826.60;;;22.40;76.70;;;;;;4889830;29;20550;-58
2022/05/27 12:40:15;;;;;;;925.58;848.10;;;21.60;77.00;;;;;;4889589;29;20028;-56
2022/05/27 12:42:43;;;;;;;928.05;846.95;;;21.90;78.00;;;;;;4888651;29;20560;-57
2022/05/27 12:45:36;;;;;;;926.83;842.75;;;21.60;75.60;;;;;;4890169;29;20043;-57
2022/05/27 12:48:02;;;;;;;937.90;850.80;;;22.20;75.30;;;;;;4868554;29;20594;-57
2022/05/27 12:50:36;;;;;;;978.38;836.10;;;22.20;75.00;;;;;;4888745;29;20099;-57
2022/05/27 12:53:19;;;;;;;1388.75;790.50;;;21.90;74.50;;;;;;4889397;29;20031;-57
2022/05/27 13:02:20;;;;;;;906.40;837.03;;;21.30;76.60;;;;;;4888200;29;20093;-57
2022/05/27 13:04:54;;;;;;;894.95;828.42;;;20.50;78.70;;;;;;4886642;29;20412;-57
2022/05/27 13:07:35;;;;;;;922.28;844.72;;;21.40;78.30;;;;;;4889775;29;20438;-57
2022/05/27 13:10:30;;;;;;;940.00;853.20;;;21.80;75.10;;;;;;4885969;29;20176;-57
2022/05/27 13:13:01;;;;;;;902.97;818.15;;;21.80;75.30;;;;;;4873622;29;20024;-57
2022/05/27 13:15:31;;;;;;;437.77;406.17;;;22.20;75.00;;;;;;4889422;29;20033;-57
2022/05/27 13:18:23;;;;;;;916.42;842.70;;;22.10;75.20;;;;;;4892524;29;20053;-58
2022/05/27 13:21:31;;;;;;;1349.78;802.20;;;22.50;75.50;;;;;;4888866;29;20621;-57
2022/05/27 13:24:01;;;;;;;1228.07;819.08;;;22.40;74.70;;;;;;4885798;29;20504;-57
2022/05/27 13:26:49;;;;;;;1059.07;810.83;;;22.00;75.60;;;;;;4889393;29;20111;-57
2022/05/27 13:29:33;;;;;;;919.15;848.60;;;22.10;73.40;;;;;;4888066;29;20092;-56